Time;durP1;ratioP1;P1;durP2;ratioP2;P2;SDS_P1;SDS_P2;PMS_P1;PMS_P2;Temp;Humidity;BMP_temperature;BMP_pressure;BME280_temperature;BME280_humidity;BME280_pressure;Samples;Min_cycle;Max_cycle;Signal;HPM_P1;HPM_P2
2021/10/30 00:02:13;;;;;;;61.60;30.23;;;;;;;2.65;77.26;98421.89;1709720;84;20996;-76
2021/10/30 00:04:39;;;;;;;63.80;31.20;;;;;;;2.60;76.36;98424.48;1710056;83;21063;-76
2021/10/30 00:07:06;;;;;;;64.75;31.12;;;;;;;2.56;76.28;98430.96;1709553;84;20982;-73
2021/10/30 00:09:33;;;;;;;63.00;30.68;;;;;;;2.53;76.38;98420.48;1709198;83;20989;-73
2021/10/30 00:12:00;;;;;;;63.23;30.35;;;;;;;2.52;76.33;98430.06;1697515;84;21446;-72
2021/10/30 00:14:27;;;;;;;63.28;32.30;;;;;;;2.49;76.71;98428.74;1695495;84;21542;-72
2021/10/30 00:16:54;;;;;;;61.42;30.25;;;;;;;2.42;76.62;98425.19;1695638;85;21033;-72
2021/10/30 00:19:20;;;;;;;63.95;30.50;;;;;;;2.37;77.52;98430.80;1695712;84;20967;-72
2021/10/30 00:21:48;;;;;;;63.58;31.80;;;;;;;2.33;78.51;98426.39;1705983;82;20973;-73
2021/10/30 00:24:15;;;;;;;64.72;30.82;;;;;;;2.28;77.14;98422.85;1702810;82;21007;-72
2021/10/30 00:26:41;;;;;;;62.43;30.40;;;;;;;2.26;77.11;98421.94;1710421;82;20980;-73
2021/10/30 00:29:08;;;;;;;64.05;31.77;;;;;;;2.23;77.58;98424.98;1710851;83;21464;-72
2021/10/30 00:31:34;;;;;;;60.30;30.92;;;;;;;2.21;76.89;98431.91;1709830;84;21004;-72
2021/10/30 00:34:01;;;;;;;59.75;30.95;;;;;;;2.18;78.21;98431.91;1689395;84;21028;-72
2021/10/30 00:36:27;;;;;;;54.63;29.42;;;;;;;2.17;77.06;98427.95;1681022;85;21016;-72
2021/10/30 00:38:54;;;;;;;60.25;30.80;;;;;;;2.16;78.96;98423.14;1680938;85;21059;-72
2021/10/30 00:41:21;;;;;;;58.60;30.55;;;;;;;2.10;78.65;98420.47;1681345;85;20988;-72
2021/10/30 00:43:48;;;;;;;58.95;30.30;;;;;;;2.09;77.18;98427.88;1681217;85;21477;-72
2021/10/30 00:46:16;;;;;;;57.08;30.27;;;;;;;2.08;77.50;98427.43;1682489;83;21052;-73
2021/10/30 00:48:43;;;;;;;59.30;28.98;;;;;;;2.07;77.12;98420.42;1716272;83;21413;-72
2021/10/30 00:51:13;;;;;;;61.48;30.17;;;;;;;2.04;77.35;98426.49;1742126;82;21035;-73
2021/10/30 00:53:41;;;;;;;65.42;30.25;;;;;;;2.02;76.89;98420.38;1723205;83;21030;-72
2021/10/30 00:56:10;;;;;;;56.33;29.80;;;;;;;2.02;77.21;98422.11;1741641;82;21495;-72
2021/10/30 00:58:37;;;;;;;60.55;28.45;;;;;;;1.99;77.38;98425.56;1734476;83;21016;-73
2021/10/30 01:01:05;;;;;;;56.68;29.18;;;;;;;1.99;77.35;98426.88;1734522;83;21024;-72
2021/10/30 01:03:35;;;;;;;60.15;28.98;;;;;;;1.97;77.51;98421.65;1734342;83;21416;-72
2021/10/30 01:06:03;;;;;;;57.83;28.35;;;;;;;1.97;77.84;98424.27;1734242;83;21047;-75
2021/10/30 01:08:30;;;;;;;59.85;27.80;;;;;;;1.95;77.10;98418.13;1734152;83;21032;-75
2021/10/30 01:10:57;;;;;;;59.38;28.38;;;;;;;1.95;76.96;98425.96;1734199;83;21563;-76
2021/10/30 01:13:24;;;;;;;56.90;28.50;;;;;;;1.93;76.78;98426.39;1733891;83;21464;-76
2021/10/30 01:15:51;;;;;;;56.40;29.63;;;;;;;1.93;77.37;98421.16;1734848;83;20996;-76
2021/10/30 01:18:17;;;;;;;52.03;27.10;;;;;;;1.93;77.28;98423.77;1734596;83;21357;-76
2021/10/30 01:20:44;;;;;;;51.37;27.73;;;;;;;1.94;77.40;98422.91;1734524;83;21008;-75
2021/10/30 01:23:11;;;;;;;57.25;27.50;;;;;;;1.93;78.61;98424.19;1734433;83;20968;-76
2021/10/30 01:25:38;;;;;;;50.58;27.70;;;;;;;1.95;78.17;98427.72;1734321;83;20980;-76
2021/10/30 01:28:04;;;;;;;54.65;27.48;;;;;;;1.96;78.34;98420.31;1734480;83;21007;-75
2021/10/30 01:30:31;;;;;;;58.15;28.32;;;;;;;1.96;78.42;98422.48;1734092;83;21047;-76
2021/10/30 01:33:04;;;;;;;58.65;28.27;;;;;;;1.99;78.67;98420.34;1734344;83;21047;-76
2021/10/30 01:35:39;;;;;;;53.40;27.55;;;;;;;1.94;79.03;98422.91;1734563;83;21032;-76
2021/10/30 01:38:07;;;;;;;57.40;27.52;;;;;;;1.90;79.89;98415.88;1734268;83;21293;-76
2021/10/30 01:40:42;;;;;;;54.18;27.80;;;;;;;1.86;80.56;98423.23;1707799;83;21038;-76
2021/10/30 01:43:10;;;;;;;52.53;28.27;;;;;;;1.81;79.33;98421.00;1734019;83;21399;-76
2021/10/30 01:45:37;;;;;;;53.87;26.52;;;;;;;1.81;78.89;98420.58;1734324;83;20975;-75
2021/10/30 01:48:04;;;;;;;57.05;27.87;;;;;;;1.80;78.65;98421.86;1741977;81;21358;-75
2021/10/30 01:50:31;;;;;;;55.03;28.75;;;;;;;1.75;78.86;98415.28;1721610;83;20945;-75
2021/10/30 01:53:01;;;;;;;51.20;26.73;;;;;;;1.73;78.26;98418.28;1701956;84;21076;-75
2021/10/30 01:55:32;;;;;;;52.08;26.77;;;;;;;1.70;78.22;98422.16;1702282;84;20999;-75
2021/10/30 01:57:59;;;;;;;55.73;27.62;;;;;;;1.65;78.01;98430.36;1701272;84;21517;-75
2021/10/30 02:00:26;;;;;;;54.10;27.25;;;;;;;1.60;77.99;98422.48;1701996;84;21020;-75
2021/10/30 02:02:53;;;;;;;51.77;25.60;;;;;;;1.54;77.98;98424.56;1701937;84;20984;-75
2021/10/30 02:05:20;;;;;;;49.38;26.35;;;;;;;1.48;78.06;98429.72;1702050;84;21008;-75
2021/10/30 02:07:47;;;;;;;50.08;27.05;;;;;;;1.46;77.84;98428.83;1701720;84;20984;-75
2021/10/30 02:10:16;;;;;;;53.23;27.60;;;;;;;1.44;77.88;98428.80;1701270;84;20969;-75
2021/10/30 02:12:43;;;;;;;46.50;25.82;;;;;;;1.41;77.75;98432.67;1700486;84;21053;-75
2021/10/30 02:15:10;;;;;;;52.23;25.80;;;;;;;1.40;78.86;98432.22;1700197;84;21064;-75
2021/10/30 02:17:37;;;;;;;51.80;24.80;;;;;;;1.36;77.92;98439.56;1701411;83;21471;-75
2021/10/30 02:20:09;;;;;;;45.60;24.27;;;;;;;1.36;79.14;98436.95;1733672;82;20990;-76
2021/10/30 02:22:38;;;;;;;50.78;25.00;;;;;;;1.30;80.26;98438.17;1706401;83;20979;-76
2021/10/30 02:25:10;;;;;;;51.13;24.63;;;;;;;1.27;78.91;98435.50;1703808;84;21026;-76
2021/10/30 02:27:37;;;;;;;48.35;24.87;;;;;;;1.26;78.47;98432.45;1709548;84;21449;-76
2021/10/30 02:30:07;;;;;;;50.38;24.80;;;;;;;1.25;78.35;98435.92;1709680;84;21401;-76
2021/10/30 02:32:33;;;;;;;45.75;23.55;;;;;;;1.22;78.42;98437.17;1709595;84;21016;-76
2021/10/30 02:35:00;;;;;;;48.83;24.60;;;;;;;1.18;78.88;98443.67;1729198;83;21482;-76
2021/10/30 02:37:26;;;;;;;51.58;26.77;;;;;;;1.16;78.30;98440.14;1726695;83;21003;-77
2021/10/30 02:39:53;;;;;;;49.50;24.72;;;;;;;1.14;78.26;98432.72;1734667;83;20994;-76
2021/10/30 02:42:20;;;;;;;49.70;25.37;;;;;;;1.09;78.39;98437.00;1742079;82;21069;-77
2021/10/30 02:44:46;;;;;;;48.20;25.80;;;;;;;1.10;78.34;98432.22;1727127;83;21003;-76
2021/10/30 02:47:13;;;;;;;46.68;24.85;;;;;;;1.08;78.63;98436.52;1736659;82;21493;-76
2021/10/30 02:49:39;;;;;;;43.28;24.18;;;;;;;1.07;78.34;98438.69;1748662;82;20985;-76
2021/10/30 02:52:08;;;;;;;45.48;23.00;;;;;;;1.05;78.35;98441.27;1748722;82;20980;-76
2021/10/30 02:54:35;;;;;;;43.17;23.07;;;;;;;1.00;81.57;98444.67;1746948;82;21074;-76
2021/10/30 02:57:02;;;;;;;51.28;24.37;;;;;;;1.00;80.42;98443.38;1717607;83;21025;-77
2021/10/30 02:59:28;;;;;;;43.17;22.30;;;;;;;1.02;79.69;98450.38;1748248;82;21020;-77
2021/10/30 03:01:55;;;;;;;49.20;24.27;;;;;;;1.03;79.72;98435.57;1730751;82;21061;-77
2021/10/30 03:04:21;;;;;;;41.75;22.48;;;;;;;1.04;79.58;98443.43;1719057;83;21438;-76
2021/10/30 03:06:49;;;;;;;51.18;24.80;;;;;;;1.09;79.70;98446.13;1719136;83;20970;-76
2021/10/30 03:09:16;;;;;;;50.65;24.67;;;;;;;1.12;80.04;98444.86;1718933;83;20981;-76
2021/10/30 03:11:42;;;;;;;46.45;23.73;;;;;;;1.12;79.86;98447.47;1718826;83;21450;-76
2021/10/30 03:14:09;;;;;;;41.50;22.58;;;;;;;1.13;80.11;98453.58;1684750;85;21055;-76
2021/10/30 03:16:35;;;;;;;40.78;22.05;;;;;;;1.13;79.87;98455.74;1684549;85;21026;-76
2021/10/30 03:19:02;;;;;;;44.53;22.90;;;;;;;1.11;80.10;98453.96;1684755;84;21023;-76
2021/10/30 03:21:29;;;;;;;48.60;22.73;;;;;;;1.10;79.69;98456.13;1681487;85;21054;-76
2021/10/30 03:23:55;;;;;;;40.00;22.05;;;;;;;1.04;79.47;98463.45;1684380;85;21507;-76
2021/10/30 03:26:22;;;;;;;43.48;21.97;;;;;;;0.98;82.08;98462.02;1708516;84;20980;-76
2021/10/30 03:28:49;;;;;;;36.25;20.95;;;;;;;0.95;79.93;98468.52;1708193;84;21032;-76
2021/10/30 03:31:15;;;;;;;43.80;22.30;;;;;;;0.88;80.61;98468.84;1693729;84;21028;-75
2021/10/30 03:33:42;;;;;;;39.00;21.30;;;;;;;0.89;80.54;98476.70;1695522;84;20971;-76
2021/10/30 03:36:08;;;;;;;43.63;22.05;;;;;;;0.84;80.11;98469.63;1696984;85;20975;-76
2021/10/30 03:38:35;;;;;;;49.05;22.93;;;;;;;0.80;79.92;98470.02;1696360;85;21053;-76
2021/10/30 03:41:02;;;;;;;45.25;23.85;;;;;;;0.79;79.46;98474.34;1697420;84;21473;-76
2021/10/30 03:43:29;;;;;;;44.53;22.30;;;;;;;0.74;79.43;98469.88;1699332;84;20969;-76
2021/10/30 03:45:57;;;;;;;43.15;22.55;;;;;;;0.71;79.66;98468.10;1708902;84;21069;-76
2021/10/30 03:48:23;;;;;;;45.33;23.22;;;;;;;0.70;79.39;98472.02;1717585;83;21040;-78
2021/10/30 03:50:54;;;;;;;45.48;22.93;;;;;;;0.67;79.33;98471.53;1707855;84;21501;-77
2021/10/30 03:53:20;;;;;;;43.13;22.98;;;;;;;0.62;79.21;98469.27;1707254;84;21029;-77
2021/10/30 03:55:50;;;;;;;47.43;22.45;;;;;;;0.56;79.27;98466.11;1708380;84;21449;-77
2021/10/30 03:58:17;;;;;;;41.02;21.73;;;;;;;0.53;79.66;98466.05;1708297;84;20992;-76
2021/10/30 04:00:44;;;;;;;42.80;22.37;;;;;;;0.53;80.45;98462.13;1720948;83;21029;-76
2021/10/30 04:03:12;;;;;;;43.17;23.50;;;;;;;0.55;79.69;98459.14;1720870;83;21012;-76
2021/10/30 04:05:39;;;;;;;41.37;21.57;;;;;;;0.54;79.63;98459.11;1678266;84;20988;-76
2021/10/30 04:08:07;;;;;;;39.92;22.50;;;;;;;0.52;79.99;98456.06;1708418;84;21056;-76
2021/10/30 04:10:35;;;;;;;40.50;21.93;;;;;;;0.54;79.43;98452.15;1708411;84;21043;-76
2021/10/30 04:13:02;;;;;;;45.58;22.42;;;;;;;0.51;79.71;98454.72;1708197;84;21167;-76
2021/10/30 04:15:29;;;;;;;47.53;21.55;;;;;;;0.47;79.67;98451.19;1707417;84;21475;-76
2021/10/30 04:17:55;;;;;;;36.88;20.00;;;;;;;0.46;79.81;98452.02;1700068;84;20949;-76
2021/10/30 04:20:22;;;;;;;42.95;20.97;;;;;;;0.44;80.14;98449.81;1707895;84;21100;-76
2021/10/30 04:22:48;;;;;;;39.13;21.23;;;;;;;0.42;80.72;98445.01;1708573;84;21421;-76
2021/10/30 04:25:15;;;;;;;42.23;20.00;;;;;;;0.42;80.25;98442.81;1708390;84;21012;-76
2021/10/30 04:27:41;;;;;;;42.67;20.00;;;;;;;0.41;80.28;98446.28;1708282;84;21432;-76
2021/10/30 04:30:08;;;;;;;34.92;19.10;;;;;;;0.43;80.37;98451.08;1708469;84;20996;-76
2021/10/30 04:32:35;;;;;;;40.08;20.75;;;;;;;0.42;79.79;98441.51;1708383;84;21473;-76
2021/10/30 04:35:07;;;;;;;41.75;21.37;;;;;;;0.39;80.23;98443.64;1702534;84;20985;-76
2021/10/30 04:37:32;;;;;;;40.65;20.95;;;;;;;0.39;81.34;98448.85;1696383;85;21029;-77
2021/10/30 04:39:58;;;;;;;40.83;21.52;;;;;;;0.39;80.63;98448.44;1696826;85;21480;-77
2021/10/30 04:42:25;;;;;;;35.63;20.50;;;;;;;0.41;80.43;98444.98;1703148;84;21031;-77
2021/10/30 04:44:52;;;;;;;34.33;18.98;;;;;;;0.41;80.28;98447.58;1708510;84;20981;-77
2021/10/30 04:47:19;;;;;;;37.55;19.10;;;;;;;0.42;80.51;98447.62;1708445;84;21060;-77
2021/10/30 04:49:48;;;;;;;39.88;19.15;;;;;;;0.48;80.67;98442.91;1700032;84;21009;-77
2021/10/30 04:52:16;;;;;;;34.10;18.55;;;;;;;0.49;80.50;98452.48;1696431;84;21080;-77
2021/10/30 04:54:43;;;;;;;38.33;19.77;;;;;;;0.51;80.93;98450.81;1666812;85;21065;-77
2021/10/30 04:57:10;;;;;;;32.78;18.52;;;;;;;0.51;80.86;98449.50;1696818;84;21037;-77
2021/10/30 04:59:36;;;;;;;36.05;18.85;;;;;;;0.47;80.77;98451.59;1723527;83;21007;-77
2021/10/30 05:02:03;;;;;;;36.83;19.15;;;;;;;0.44;81.01;98453.72;1723650;83;21023;-77
2021/10/30 05:04:30;;;;;;;35.25;18.60;;;;;;;0.47;81.09;98455.09;1724030;83;21078;-76
2021/10/30 05:06:57;;;;;;;33.38;18.23;;;;;;;0.48;81.01;98462.06;1726398;82;20968;-76
2021/10/30 05:09:24;;;;;;;35.88;19.25;;;;;;;0.46;80.83;98457.23;1748598;82;21001;-76
2021/10/30 05:11:51;;;;;;;33.33;18.02;;;;;;;0.42;80.46;98453.24;1748602;82;20985;-76
2021/10/30 05:14:17;;;;;;;35.88;19.37;;;;;;;0.40;80.75;98462.34;1748868;82;21442;-76
2021/10/30 05:16:44;;;;;;;40.80;21.45;;;;;;;0.42;80.16;98458.46;1748629;82;21005;-76
2021/10/30 05:19:12;;;;;;;37.78;20.62;;;;;;;0.39;80.03;98456.67;1747028;82;20957;-76
2021/10/30 05:21:39;;;;;;;39.58;19.73;;;;;;;0.34;80.54;98463.53;1745334;82;20980;-77
2021/10/30 05:24:06;;;;;;;43.80;21.50;;;;;;;0.34;80.27;98453.10;1748386;82;21004;-76
2021/10/30 05:26:33;;;;;;;36.08;19.80;;;;;;;0.33;80.13;98460.03;1748848;82;20982;-76
2021/10/30 05:28:59;;;;;;;40.10;20.62;;;;;;;0.31;80.46;98462.16;1748529;82;21069;-76
2021/10/30 05:31:26;;;;;;;43.45;19.85;;;;;;;0.31;80.47;98457.84;1748630;82;20985;-76
2021/10/30 05:33:52;;;;;;;37.80;17.92;;;;;;;0.31;80.48;98458.25;1748695;82;21009;-76
2021/10/30 05:36:39;;;;;;;38.88;19.67;;;;;;;0.31;80.81;98468.27;1748730;82;21053;-76
2021/10/30 05:39:17;;;;;;;38.90;20.45;;;;;;;0.34;80.15;98471.36;1748130;82;21088;-76
2021/10/30 05:41:44;;;;;;;41.73;20.57;;;;;;;0.33;80.75;98467.86;1748659;82;20997;-76
2021/10/30 05:44:11;;;;;;;36.23;19.77;;;;;;;0.29;81.49;98460.82;1748341;82;21006;-76
2021/10/30 05:46:40;;;;;;;40.60;20.37;;;;;;;0.34;81.35;98463.53;1748501;82;20986;-76
2021/10/30 05:49:07;;;;;;;37.65;20.55;;;;;;;0.38;80.88;98466.66;1753574;82;21018;-77
2021/10/30 05:51:35;;;;;;;43.02;19.70;;;;;;;0.40;80.58;98467.55;1756524;81;21040;-77
2021/10/30 05:54:02;;;;;;;34.83;19.62;;;;;;;0.44;80.79;98475.00;1757329;82;21371;-76
2021/10/30 05:56:30;;;;;;;39.63;19.67;;;;;;;0.46;81.05;98468.96;1757519;82;21477;-77
2021/10/30 05:58:56;;;;;;;37.73;19.70;;;;;;;0.50;81.33;98469.92;1757379;82;21017;-77
2021/10/30 06:01:23;;;;;;;37.88;20.17;;;;;;;0.55;80.90;98476.09;1757299;82;21055;-77
2021/10/30 06:03:50;;;;;;;37.67;20.70;;;;;;;0.60;80.89;98474.87;1757264;82;21454;-76
2021/10/30 06:06:17;;;;;;;37.65;20.30;;;;;;;0.63;80.73;98477.55;1757384;82;20997;-77
2021/10/30 06:08:43;;;;;;;41.18;20.10;;;;;;;0.67;81.02;98475.86;1757014;82;20961;-77
2021/10/30 06:11:10;;;;;;;34.00;20.52;;;;;;;0.68;81.42;98473.70;1757840;81;21052;-77
2021/10/30 06:13:37;;;;;;;40.60;20.23;;;;;;;0.71;80.86;98480.28;1742330;81;20965;-77
2021/10/30 06:16:04;;;;;;;35.65;20.17;;;;;;;0.76;81.27;98480.83;1735184;82;21040;-77
2021/10/30 06:18:31;;;;;;;38.00;20.95;;;;;;;0.79;81.06;98470.88;1735160;82;21441;-77
2021/10/30 06:20:57;;;;;;;41.20;20.80;;;;;;;0.83;80.69;98472.66;1735749;82;20990;-77
2021/10/30 06:23:24;;;;;;;37.45;20.27;;;;;;;0.90;81.09;98477.14;1735299;83;21026;-76
2021/10/30 06:25:50;;;;;;;37.25;21.00;;;;;;;0.94;80.95;98475.45;1745747;82;21457;-76
2021/10/30 06:28:20;;;;;;;38.83;20.80;;;;;;;0.98;80.77;98469.86;1757669;81;20997;-76
2021/10/30 06:30:47;;;;;;;35.43;19.85;;;;;;;1.06;80.87;98468.27;1757584;82;20981;-76
2021/10/30 06:33:13;;;;;;;41.68;18.95;;;;;;;1.12;80.52;98472.71;1757284;81;21044;-76
2021/10/30 06:35:40;;;;;;;36.60;20.25;;;;;;;1.17;81.22;98468.44;1757534;82;21048;-76
2021/10/30 06:38:06;;;;;;;38.33;20.25;;;;;;;1.24;80.78;98461.59;1757344;82;21031;-76
2021/10/30 06:40:33;;;;;;;36.65;19.52;;;;;;;1.30;80.57;98465.14;1757528;81;21434;-76
2021/10/30 06:42:59;;;;;;;42.40;20.30;;;;;;;1.36;80.84;98463.06;1757649;82;21111;-76
2021/10/30 06:45:26;;;;;;;41.05;20.88;;;;;;;1.44;80.33;98461.87;1757575;82;21383;-76
2021/10/30 06:47:52;;;;;;;46.35;25.82;;;;;;;1.50;80.40;98459.34;1757403;82;20978;-76
2021/10/30 06:50:22;;;;;;;67.53;32.58;;;;;;;1.56;80.48;98468.59;1739341;82;21417;-76
2021/10/30 06:52:51;;;;;;;41.42;21.12;;;;;;;1.65;80.13;98466.95;1731532;83;21062;-76
2021/10/30 06:55:20;;;;;;;42.55;21.62;;;;;;;1.74;80.15;98459.69;1731335;83;20988;-76
2021/10/30 06:57:48;;;;;;;36.98;21.33;;;;;;;1.82;80.52;98465.87;1731680;82;20978;-76
2021/10/30 07:00:16;;;;;;;41.77;22.65;;;;;;;1.93;80.39;98475.16;1731631;83;21009;-76
2021/10/30 07:02:44;;;;;;;47.73;22.98;;;;;;;2.01;80.72;98460.47;1731561;82;20974;-76
2021/10/30 07:05:11;;;;;;;44.58;23.65;;;;;;;2.13;81.24;98469.30;1731713;83;21402;-76
2021/10/30 07:07:38;;;;;;;51.40;26.73;;;;;;;2.21;80.39;98471.14;1731601;82;20973;-76
2021/10/30 07:10:06;;;;;;;46.70;25.85;;;;;;;2.31;80.87;98460.38;1731457;82;21017;-76
2021/10/30 07:12:37;;;;;;;45.58;24.07;;;;;;;2.43;80.72;98463.56;1736735;82;20981;-76
2021/10/30 07:15:06;;;;;;;43.33;25.35;;;;;;;2.57;80.45;98465.45;1749732;82;20989;-75
2021/10/30 07:17:33;;;;;;;43.30;26.07;;;;;;;2.66;80.03;98462.93;1719105;83;21017;-75
2021/10/30 07:20:00;;;;;;;51.58;25.23;;;;;;;2.75;80.11;98459.06;1726441;82;21039;-77
2021/10/30 07:22:26;;;;;;;50.67;26.73;;;;;;;2.89;80.12;98456.59;1731612;83;20979;-78
2021/10/30 07:24:53;;;;;;;48.83;25.77;;;;;;;3.02;80.38;98453.64;1732343;82;21006;-80
2021/10/30 07:27:19;;;;;;;46.58;25.80;;;;;;;3.14;80.04;98448.94;1736845;82;21020;-77
2021/10/30 07:29:48;;;;;;;48.25;26.15;;;;;;;3.26;80.31;98449.46;1740439;82;21041;-78
2021/10/30 07:32:17;;;;;;;52.83;25.08;;;;;;;3.37;80.11;98449.52;1736344;82;21417;-82
2021/10/30 07:34:43;;;;;;;52.10;25.75;;;;;;;3.48;79.85;98443.50;1738709;82;22399;-81
2021/10/30 07:37:10;;;;;;;51.30;25.82;;;;;;;3.60;79.84;98442.23;1742419;82;21028;-81
2021/10/30 07:39:38;;;;;;;45.28;25.85;;;;;;;3.70;79.60;98439.25;1691965;84;21041;-81
2021/10/30 07:42:06;;;;;;;51.02;26.82;;;;;;;3.81;79.67;98441.91;1708342;83;21071;-81
2021/10/30 07:44:39;;;;;;;56.88;30.12;;;;;;;3.95;79.53;98436.30;1698092;84;21065;-82
2021/10/30 07:47:06;;;;;;;52.85;29.52;;;;;;;4.12;79.29;98432.88;1699131;84;21450;-82
2021/10/30 07:49:34;;;;;;;59.60;30.45;;;;;;;4.31;79.38;98433.80;1699720;84;21021;-81
2021/10/30 07:52:07;;;;;;;57.98;29.55;;;;;;;4.53;79.13;98419.86;1699932;84;21024;-82
2021/10/30 07:54:35;;;;;;;57.45;29.65;;;;;;;4.70;78.78;98426.44;1698729;84;21013;-81
2021/10/30 07:57:06;;;;;;;55.92;29.70;;;;;;;4.87;78.69;98428.63;1696481;84;21019;-82
2021/10/30 07:59:32;;;;;;;76.07;42.23;;;;;;;5.04;78.56;98420.31;1694797;84;21000;-82
2021/10/30 08:02:00;;;;;;;66.90;36.15;;;;;;;5.24;78.89;98422.48;1697273;84;21019;-82
2021/10/30 08:04:30;;;;;;;53.90;31.52;;;;;;;5.43;78.74;98413.72;1697834;84;21406;-82
2021/10/30 08:06:59;;;;;;;54.25;30.12;;;;;;;5.63;78.64;98403.13;1695432;84;21039;-81
2021/10/30 08:09:26;;;;;;;55.15;29.63;;;;;;;5.84;78.74;98401.30;1697910;84;21036;-81
2021/10/30 08:11:53;;;;;;;52.08;29.57;;;;;;;6.03;78.20;98402.16;1699131;84;20981;-82
2021/10/30 08:14:21;;;;;;;53.17;31.50;;;;;;;6.20;77.99;98398.98;1698955;84;21085;-82
2021/10/30 08:16:51;;;;;;;61.15;33.25;;;;;;;6.34;77.68;98397.60;1698951;84;21005;-83
2021/10/30 08:19:17;;;;;;;68.52;34.63;;;;;;;6.52;76.96;98400.98;1694714;84;21095;-85
2021/10/30 08:21:44;;;;;;;53.98;31.65;;;;;;;6.67;77.13;98389.48;1690088;84;21440;-81
2021/10/30 08:24:11;;;;;;;55.98;31.05;;;;;;;6.84;76.68;98383.20;1697210;82;21025;-82
2021/10/30 08:26:38;;;;;;;52.13;30.48;;;;;;;7.00;76.46;98382.20;1695902;84;20973;-79
2021/10/30 08:29:06;;;;;;;50.25;28.77;;;;;;;7.19;76.05;98378.05;1697643;84;21311;-79
2021/10/30 08:31:33;;;;;;;50.78;28.67;;;;;;;7.36;75.76;98372.61;1679899;84;21436;-80
2021/10/30 08:34:00;;;;;;;48.48;28.35;;;;;;;7.53;74.76;98368.47;1698487;84;21009;-79
2021/10/30 08:36:27;;;;;;;45.12;27.93;;;;;;;7.69;75.00;98367.00;1755810;81;21016;-80
2021/10/30 08:38:56;;;;;;;49.77;28.45;;;;;;;7.82;74.59;98368.16;1756807;81;21084;-79
2021/10/30 08:41:23;;;;;;;41.20;25.23;;;;;;;7.97;73.87;98359.18;1751136;81;20989;-79
2021/10/30 08:43:50;;;;;;;44.13;25.27;;;;;;;8.15;73.27;98371.25;1724782;83;21029;-78
2021/10/30 08:46:17;;;;;;;47.20;23.38;;;;;;;8.27;72.96;98364.93;1725240;83;20973;-80
2021/10/30 08:48:47;;;;;;;41.55;22.42;;;;;;;8.41;73.37;98372.20;1743027;81;21056;-80
2021/10/30 08:51:15;;;;;;;37.30;21.25;;;;;;;8.56;71.98;98366.30;1757747;81;21013;-79
2021/10/30 08:53:42;;;;;;;34.18;20.75;;;;;;;8.68;72.78;98366.56;1758605;81;20981;-79
2021/10/30 08:56:10;;;;;;;35.35;19.50;;;;;;;8.79;71.88;98365.92;1758161;81;21028;-79
2021/10/30 08:58:37;;;;;;;33.67;18.87;;;;;;;8.91;72.22;98360.00;1758381;81;21509;-79
2021/10/30 09:01:09;;;;;;;30.70;18.60;;;;;;;9.01;72.10;98349.69;1757961;81;21047;-82
2021/10/30 09:03:38;;;;;;;36.10;18.55;;;;;;;9.16;70.86;98352.96;1755155;81;21024;-81
2021/10/30 09:06:06;;;;;;;27.93;16.80;;;;;;;9.32;70.77;98345.63;1758698;81;21019;-78
2021/10/30 09:08:34;;;;;;;25.25;14.80;;;;;;;9.50;70.16;98347.92;1758460;80;21071;-77
2021/10/30 09:11:09;;;;;;;23.60;14.30;;;;;;;9.66;69.67;98349.38;1758680;81;21433;-78
2021/10/30 09:13:37;;;;;;;22.65;13.30;;;;;;;9.83;68.85;98342.41;1758470;81;20989;-79
2021/10/30 09:16:06;;;;;;;22.73;13.30;;;;;;;10.00;67.15;98342.05;1758280;81;21321;-78
2021/10/30 09:18:38;;;;;;;25.80;14.23;;;;;;;10.20;66.86;98336.33;1758615;81;20985;-78
2021/10/30 09:21:18;;;;;;;20.43;13.68;;;;;;;10.36;66.93;98342.59;1743195;81;21428;-78
2021/10/30 09:23:54;;;;;;;24.32;13.30;;;;;;;10.49;66.51;98337.91;1758075;81;21022;-78
2021/10/30 09:26:27;;;;;;;24.75;12.63;;;;;;;10.62;65.17;98333.19;1758055;81;21055;-79
2021/10/30 09:29:00;;;;;;;23.90;13.00;;;;;;;10.77;64.26;98337.25;1758263;81;21040;-78
2021/10/30 09:31:28;;;;;;;21.93;12.20;;;;;;;10.91;62.80;98339.55;1759376;81;21028;-78
2021/10/30 09:34:02;;;;;;;20.80;12.28;;;;;;;11.05;63.26;98327.28;1758349;81;21298;-78
2021/10/30 09:36:38;;;;;;;22.05;12.30;;;;;;;11.18;62.52;98330.47;1758228;81;21052;-79
2021/10/30 09:39:13;;;;;;;18.50;12.43;;;;;;;11.31;62.66;98328.35;1758313;81;21047;-77
2021/10/30 09:41:44;;;;;;;19.07;12.37;;;;;;;11.43;62.30;98319.19;1759007;81;20992;-78
2021/10/30 09:44:19;;;;;;;21.55;12.45;;;;;;;11.58;62.09;98320.52;1758545;81;21461;-78
2021/10/30 09:46:55;;;;;;;23.50;12.58;;;;;;;11.67;61.42;98314.95;1747395;81;20984;-79
2021/10/30 09:49:30;;;;;;;19.70;12.15;;;;;;;11.82;60.61;98316.30;1744268;81;21487;-78
2021/10/30 09:52:10;;;;;;;17.80;12.03;;;;;;;11.97;58.59;98306.14;1717992;83;21037;-79
2021/10/30 09:54:42;;;;;;;19.17;12.00;;;;;;;12.10;59.30;98307.98;1712254;83;21045;-79
2021/10/30 09:57:16;;;;;;;20.17;11.60;;;;;;;12.27;58.51;98306.14;1718027;83;21415;-79
2021/10/30 09:59:45;;;;;;;;;;;;;;;12.38;57.93;98296.02;1707939;84;21482;-79
2021/10/30 10:02:13;;;;;;;18.48;11.80;;;;;;;12.51;57.31;98292.50;1708148;84;20126;-78
2021/10/30 10:04:41;;;;;;;16.00;11.08;;;;;;;12.63;56.71;98296.55;1707236;84;21440;-82
2021/10/30 10:07:09;;;;;;;18.42;11.50;;;;;;;12.78;56.10;98288.98;1705839;84;21080;-82
2021/10/30 10:09:36;;;;;;;16.85;11.15;;;;;;;12.96;55.35;98292.83;1744873;82;21012;-79
2021/10/30 10:12:04;;;;;;;20.05;10.70;;;;;;;13.10;55.92;98287.47;1708194;84;21051;-79
2021/10/30 10:14:35;;;;;;;19.07;11.45;;;;;;;13.19;55.90;98286.69;1757315;80;21008;-81
2021/10/30 10:17:03;;;;;;;16.65;11.12;;;;;;;13.30;55.15;98281.44;1761196;81;20989;-80
2021/10/30 10:19:29;;;;;;;20.92;11.12;;;;;;;13.41;55.86;98279.73;1754656;81;21024;-78
2021/10/30 10:21:56;;;;;;;18.57;11.68;;;;;;;13.52;54.01;98280.22;1755993;81;21390;-79
2021/10/30 10:24:33;;;;;;;15.83;10.53;;;;;;;13.65;54.56;98272.64;1749380;81;21012;-80
2021/10/30 10:27:03;;;;;;;16.00;9.93;;;;;;;13.76;54.47;98267.37;1720011;83;20990;-83
2021/10/30 10:29:45;;;;;;;14.98;10.58;;;;;;;14.36;55.14;98267.67;1686228;83;21020;-80
2021/10/30 10:32:19;;;;;;;18.10;11.55;;;;;;;15.54;53.51;98255.11;1703106;84;21058;-78
2021/10/30 10:34:48;;;;;;;14.20;10.72;;;;;;;16.89;51.42;98252.28;1704114;84;21052;-80
2021/10/30 10:37:20;;;;;;;17.20;11.28;;;;;;;18.11;50.73;98240.53;1708997;83;21032;-82
2021/10/30 10:40:00;;;;;;;18.52;11.38;;;;;;;19.25;42.86;98237.02;1713716;82;20977;-81
2021/10/30 10:42:40;;;;;;;16.75;11.60;;;;;;;20.42;45.85;98223.42;1695403;84;21498;-81
2021/10/30 10:45:16;;;;;;;17.85;12.50;;;;;;;21.29;41.43;98220.78;1702836;84;21032;-82
2021/10/30 10:47:50;;;;;;;18.32;11.25;;;;;;;21.98;38.45;98224.91;1703338;84;21049;-81
2021/10/30 10:50:34;;;;;;;15.93;11.97;;;;;;;22.60;35.01;98204.65;1701956;83;21060;-81
2021/10/30 10:53:09;;;;;;;16.77;11.80;;;;;;;23.19;34.06;98212.30;1704753;84;21067;-82
2021/10/30 10:55:50;;;;;;;20.15;11.40;;;;;;;23.77;32.72;98206.45;1703217;84;21058;-81
2021/10/30 10:58:17;;;;;;;17.45;11.70;;;;;;;24.47;34.64;98203.02;1708719;82;21028;-81
2021/10/30 11:01:05;;;;;;;17.55;11.75;;;;;;;24.98;33.20;98200.58;1705237;84;20989;-83
2021/10/30 11:03:43;;;;;;;19.23;12.68;;;;;;;25.36;29.36;98203.65;1698211;84;21484;-81
2021/10/30 11:06:10;;;;;;;17.50;14.05;;;;;;;25.67;30.06;98200.98;1751754;81;21094;-80
2021/10/30 11:08:37;;;;;;;23.07;14.10;;;;;;;25.72;26.68;98196.97;1750169;81;21040;-81
2021/10/30 11:11:20;;;;;;;23.55;13.50;;;;;;;26.17;29.98;98194.31;1749809;82;21071;-81
2021/10/30 11:14:01;;;;;;;18.73;14.10;;;;;;;26.58;27.65;98193.73;1751226;81;21020;-81
2021/10/30 11:16:47;;;;;;;19.55;13.95;;;;;;;26.99;26.93;98182.71;1753746;81;21079;-80
2021/10/30 11:19:30;;;;;;;18.25;13.32;;;;;;;27.30;25.29;98179.41;1747550;80;21023;-82
2021/10/30 11:22:00;;;;;;;18.12;13.30;;;;;;;27.34;27.96;98182.20;1744495;82;21054;-81
2021/10/30 11:24:27;;;;;;;18.40;14.00;;;;;;;27.53;26.33;98179.92;1748491;81;21008;-82
2021/10/30 11:27:01;;;;;;;18.23;14.28;;;;;;;27.93;26.68;98174.66;1751803;82;21601;-81
2021/10/30 11:29:28;;;;;;;16.73;13.08;;;;;;;27.93;24.18;98169.22;1749235;82;21472;-80
2021/10/30 11:32:05;;;;;;;17.75;12.90;;;;;;;27.66;24.10;98168.20;1751584;81;21027;-82